Maldives Meteorological Service

METAR

Station
VRMM
METAR VRMM 131000Z 07012KT 9999 SCT017 FEW018CB BKN120 28/25 Q1009 CB NE,SE TEMPO 5000 -SHRA=
VRMH
METAR VRMH 131000Z 34003KT 9999 FEW018TCU SCT260 30/25 Q1009=
VRMK
METAR VRMK 130900Z VRB01KT 9000 –SHRA FEW017 FEW018CB BKN110 26/24 Q1010 CB NE=
VRMT
METAR VRMT 131000Z VRB01KT 7000 –RA SCT016 FEW017CB OVC100 25/24 Q1010 CB S,W,NW=
VRMG
METAR VRMG 131000Z 32005KT 8000 -RA FEW017TCU OVC100 25/25 Q1010 TEMPO 3000 TSRA=
Last Updated : 2019-12-13 15:01:02

SPECI

Station
VRMM
VRMH
VRMK
SPECI VRMK 130952Z 05006KT 7000 -TSRA FEW017 FEW018CB OVC100 25/24 Q1010 CB WSW,W=
VRMT
VRMG
Last Updated : 2019-12-13 15:01:02